Data for 06/26/2007

Time Sea-Level Adjusted Pressure Absolute Pressure Temperature Relative Humidity Dew Point   
(mb) (inHg) (mb) (inHg) (C) (F) (%) (C) (F)
00:05 1026 30.3 855 25.25 8.1 46.5 52 -1.1 29.9
00:10 1026 30.3 855 25.25 7.7 45.8 53 -1.3 29.6
00:15 1026 30.3 855 25.25 7.7 45.9 50 -1.9 28.5
00:20 1026 30.3 855 25.25 8.1 46.6 49 -2 28.4
00:25 1026 30.3 855 25.25 8.2 46.7 50 -1.7 29
00:30 1026 30.3 855 25.25 7.7 45.9 52 -1.4 29.4
00:35 1026 30.3 855 25.25 7.4 45.3 53 -1.7 29
00:40 1026 30.3 855 25.25 7.6 45.8 50 -2 28.4
00:45 1026 30.3 855 25.25 7.9 46.2 50 -1.9 28.5
00:50 1026 30.3 855 25.25 7.6 45.8 51 -1.8 28.8
00:55 1026 30.3 855 25.25 7.5 45.4 53 -1.6 29.1
01:00 1026 30.3 855 25.25 7.2 45 53 -1.8 28.7
01:05 1026 30.3 855 25.25 7.2 44.9 50 -2.5 27.5
01:10 1026 30.3 855 25.25 7.2 45 48 -3 26.6
01:15 1026 30.3 855 25.25 7.4 45.3 48 -2.9 26.7
01:20 1026 30.3 855 25.25 7.5 45.6 50 -2.2 28.1
01:25 1026 30.3 855 25.25 7.4 45.4 51 -2 28.5
01:30 1026 30.3 855 25.25 7.3 45.1 51 -2.1 28.1
01:35 1026 30.3 855 25.25 7.4 45.2 52 -1.9 28.7
01:40 1026 30.3 855 25.25 7.6 45.7 52 -1.7 28.9
01:45 1026 30.3 855 25.25 7.4 45.4 54 -1.3 29.7
01:50 1026 30.3 855 25.25 6.8 44.2 55 -1.5 29.3
01:55 1026 30.3 855 25.25 6.4 43.5 57 -1.4 29.5
02:00 1026 30.3 855 25.25 5.9 42.6 55 -2.4 27.7
02:05 1026 30.3 855 25.25 5.9 42.7 56 -2.3 27.9
02:10 1026 30.3 855 25.25 6 42.9 58 -1.6 29.1
02:15 1026 30.3 855 25.25 5.9 42.7 56 -2.2 28
02:20 1026 30.3 855 25.25 5.8 42.5 56 -2.3 27.9
02:25 1026 30.3 855 25.25 5.7 42.3 56 -2.3 27.8
02:30 1026 30.3 855 25.25 5.8 42.4 56 -2.4 27.8
02:35 1026 30.3 855 25.25 5.5 42 57 -2.2 28.1
02:40 1026 30.3 855 25.25 5.4 41.7 58 -2.1 28.2
02:45 1026 30.3 855 25.25 5.3 41.6 57 -2.5 27.5
02:50 1026 30.3 855 25.25 5.1 41.1 61 -1.9 28.6
02:55 1026 30.3 855 25.25 4.7 40.4 62 -2 28.3
03:00 1026 30.3 855 25.25 4.6 40.2 62 -2 28.3
03:05 1026 30.3 855 25.25 4.4 40 62 -2.2 28
03:10 1026 30.3 855 25.25 4.5 40.1 59 -2.8 27
03:15 1026 30.3 855 25.25 4.7 40.5 56 -3.2 26.2
03:20 1026 30.3 855 25.25 5.1 41.1 54 -3.5 25.7
03:25 1026 30.3 855 25.25 5.2 41.4 54 -3.4 25.9
03:30 1026 30.3 855 25.25 5.1 41.2 54 -3.3 26
03:35 1026 30.3 855 25.25 5 41 53 -3.7 25.4
03:40 1026 30.3 855 25.25 5 40.9 54 -3.5 25.7
03:45 1026 30.3 855 25.25 5 40.9 55 -3.4 25.9
03:50 1026 30.3 856 25.28 5 40.9 55 -3.3 26
03:55 1026 30.3 856 25.28 4.9 40.8 55 -3.5 25.8
04:00 1026 30.3 855 25.25 4.9 40.8 52 -4.1 24.7
04:05 1026 30.3 855 25.25 5 41.1 53 -3.6 25.5
04:10 1026 30.3 856 25.28 4.9 40.8 54 -3.6 25.6
04:15 1026 30.3 856 25.28 4.9 40.8 53 -3.9 25
04:20 1026 30.3 856 25.28 5.1 41.1 53 -3.8 25.2
04:25 1026 30.3 856 25.28 5 41.1 54 -3.6 25.5
04:30 1027 30.33 856 25.28 4.9 40.8 52 -4.1 24.7
04:35 1027 30.33 856 25.28 4.7 40.5 53 -4.1 24.5
04:40 1027 30.33 856 25.28 4.7 40.5 53 -4.1 24.7
04:45 1027 30.33 856 25.28 4.6 40.3 52 -4.5 23.8
04:50 1027 30.33 856 25.28 4.7 40.4 51 -4.5 23.8
04:55 1027 30.33 856 25.28 4.7 40.4 52 -4.3 24.3
05:00 1027 30.33 856 25.28 4.7 40.4 52 -4.2 24.4
05:05 1027 30.33 856 25.28 4.5 40.1 54 -4 24.9
05:10 1027 30.33 856 25.28 4.3 39.8 52 -4.8 23.4
05:15 1027 30.33 856 25.28 4.5 40.1 51 -4.7 23.6
05:20 1027 30.33 856 25.28 4.6 40.2 51 -4.8 23.4
05:25 1027 30.33 856 25.28 4.9 40.9 50 -4.6 23.7
05:30 1027 30.33 856 25.28 5 41 50 -4.7 23.6
05:35 1027 30.33 856 25.28 5.2 41.3 47 -5.4 22.4
05:40 1027 30.33 856 25.28 5.3 41.5 48 -4.8 23.4
05:45 1027 30.33 856 25.28 5.1 41.2 48 -5.1 22.9
05:50 1027 30.33 856 25.28 5.1 41.2 52 -4 24.9
05:55 1027 30.33 856 25.28 4.5 40.1 59 -2.8 26.9
06:00 1027 30.33 856 25.28 3.8 38.9 57 -4 24.9
06:05 1027 30.33 856 25.28 3.6 38.5 59 -3.6 25.4
06:10 1027 30.33 856 25.28 3.5 38.3 58 -4 24.9
06:15 1027 30.33 856 25.28 3.6 38.5 57 -4.2 24.4
06:20 1027 30.33 856 25.28 3.7 38.6 57 -4 24.8
06:25 1027 30.33 856 25.28 3.7 38.7 57 -4.1 24.7
06:30 1027 30.33 856 25.28 3.9 39.1 56 -4.1 24.6
06:35 1027 30.33 856 25.28 4.3 39.7 54 -4.2 24.4
06:40 1027 30.33 857 25.31 4.6 40.3 53 -4 24.7
06:45 1027 30.33 857 25.31 4.6 40.4 56 -3.4 26
06:50 1027 30.33 857 25.31 5.1 41.2 51 -4.1 24.6
06:55 1027 30.33 857 25.31 5.5 41.9 52 -3.6 25.6
07:00 1027 30.33 857 25.31 5.9 42.7 51 -3.4 25.8
07:05 1027 30.33 857 25.31 6.2 43.1 50 -3.5 25.7
07:10 1027 30.33 857 25.31 6.3 43.4 52 -2.8 27
07:15 1028 30.36 857 25.31 6.6 44 52 -2.5 27.5
07:20 1028 30.36 857 25.31 7 44.7 51 -2.3 27.9
07:25 1028 30.36 857 25.31 7.6 45.7 50 -2.1 28.2
07:30 1028 30.36 857 25.31 7.9 46.2 50 -2 28.5
07:35 1028 30.36 857 25.31 8.1 46.6 47 -2.5 27.6
07:40 1028 30.36 857 25.31 8.4 47 48 -1.9 28.5
07:45 1028 30.36 857 25.31 8.4 47 48 -1.9 28.6
07:50 1028 30.36 857 25.31 8.2 46.8 50 -1.6 29.1
07:55 1028 30.36 857 25.31 8.3 47 49 -1.8 28.8
08:00 1028 30.36 857 25.31 8.5 47.2 49 -1.6 29.1
08:05 1028 30.36 857 25.31 8.9 48 46 -2.1 28.3
08:10 1028 30.36 857 25.31 9.5 49.2 45 -1.6 29
08:15 1028 30.36 857 25.31 10.1 50.3 43 -2 28.5
08:20 1028 30.36 857 25.31 10.7 51.2 38 -3.1 26.4
08:25 1028 30.36 857 25.31 11.2 52.1 38 -2.7 27.1
08:30 1028 30.36 857 25.31 11.3 52.3 35 -3.7 25.4
08:35 1028 30.36 857 25.31 11.8 53.2 35 -3.2 26.2
08:40 1028 30.36 857 25.31 11.8 53.3 35 -3.3 26.1
08:45 1028 30.36 857 25.31 12.3 54.1 34 -3.1 26.4
08:50 1028 30.36 857 25.31 12.7 54.9 33 -3.2 26.3
08:55 1028 30.36 857 25.31 12.8 55 31 -3.8 25.2
09:00 1028 30.36 857 25.31 13 55.5 31 -3.5 25.6
09:05 1028 30.36 857 25.31 13.2 55.8 31 -3.4 26
09:10 1028 30.36 857 25.31 13.3 55.9 32 -3 26.6
09:15 1028 30.36 857 25.31 13.7 56.6 30 -3.6 25.5
09:20 1028 30.36 857 25.31 13.9 56.9 31 -2.8 27
09:25 1028 30.36 857 25.31 13.7 56.6 32 -2.7 27.1
09:30 1028 30.36 857 25.31 13.9 57.1 31 -2.9 26.8
09:35 1028 30.36 857 25.31 14.2 57.6 31 -2.6 27.3
09:40 1028 30.36 857 25.31 14.4 57.9 31 -2.4 27.6
09:45 1028 30.36 857 25.31 14.1 57.4 33 -1.9 28.6
09:50 1028 30.36 857 25.31 14 57.3 33 -1.8 28.8
09:55 1028 30.36 857 25.31 14.5 58 33 -1.7 29
10:00 1028 30.36 857 25.31 14.5 58.1 31 -2.5 27.5
10:05 1028 30.36 857 25.31 14.5 58.1 30 -2.9 26.7
10:10 1028 30.36 857 25.31 15 58.9 28 -3.1 26.5
10:15 1028 30.36 857 25.31 14.8 58.6 30 -2.7 27.1
10:20 1028 30.36 857 25.31 15 58.9 26 -4.2 24.5
10:25 1028 30.36 857 25.31 15.2 59.3 27 -3.7 25.3
10:30 1028 30.36 857 25.31 15.6 60 23 -5.5 22.1
10:35 1028 30.36 857 25.31 16.1 60.9 20 -7.1 19.3
10:40 1028 30.36 857 25.31 16.1 61 21 -6.1 21.1
10:45 1027 30.33 857 25.31 16.1 60.9 25 -3.8 25.1
10:50 1027 30.33 857 25.31 16.1 61 23 -4.7 23.6
10:55 1027 30.33 857 25.31 16.1 61 25 -3.7 25.4
11:00 1027 30.33 857 25.31 15.5 59.8 22 -5.9 21.3
11:05 1027 30.33 857 25.31 15.1 59.2 25 -4.9 23.2
11:10 1027 30.33 856 25.28 14.7 58.5 25 -4.8 23.4
11:15 1027 30.33 856 25.28 15.2 59.3 26 -3.9 24.9
11:20 1027 30.33 856 25.28 15.9 60.7 25 -4.2 24.5
11:25 1027 30.33 856 25.28 16.4 61.5 24 -4.3 24.3
11:30 1027 30.33 856 25.28 16.4 61.4 24 -4.2 24.5
11:35 1027 30.33 856 25.28 16.4 61.5 25 -3.7 25.4
11:40 1027 30.33 856 25.28 16.5 61.8 23 -4.6 23.7
11:45 1027 30.33 856 25.28 16.1 61.1 20 -6.7 19.9
11:50 1027 30.33 856 25.28 17.5 63.5 18 -7.3 18.9
11:55 1027 30.33 856 25.28 16.7 62.1 18 -8 17.6
12:00 1027 30.33 856 25.28 17.1 62.8 18 -7.1 19.1
12:05 1027 30.33 856 25.28 16.7 62.1 21 -5.7 21.8
12:10 1027 30.33 856 25.28 16.9 62.4 22 -4.8 23.3
12:15 1027 30.33 856 25.28 18.4 65 19 -5.3 22.4
12:20 1027 30.33 856 25.28 18.6 65.4 18 -6.1 21
12:25 1027 30.33 856 25.28 18.4 65.2 18 -6.3 20.7
12:30 1027 30.33 856 25.28 18.3 64.9 18 -6.1 21.1
12:35 1027 30.33 856 25.28 18.7 65.6 15 -8.2 17.3
12:40 1027 30.33 856 25.28 18.1 64.6 18 -6.4 20.4
12:45 1027 30.33 856 25.28 19.1 66.4 18 -5.9 21.4
12:50 1027 30.33 856 25.28 19.3 66.8 16 -7 19.5
12:55 1027 30.33 856 25.28 17.9 64.3 17 -7.1 19.2
13:00 1027 30.33 856 25.28 17.6 63.7 19 -6.3 20.6
13:05 1027 30.33 856 25.28 18.5 65.3 18 -6.3 20.6
13:10 1027 30.33 856 25.28 19.5 67.1 16 -6.9 19.6
13:15 1027 30.33 856 25.28 19.7 67.5 16 -7 19.5
13:20 1027 30.33 856 25.28 19.2 66.6 19 -5.1 22.9
13:25 1026 30.3 856 25.28 19.6 67.4 16 -6.7 20
13:30 1026 30.3 856 25.28 20.5 68.9 17 -5.1 22.9
13:35 1026 30.3 856 25.28 20.4 68.8 15 -7.1 19.2
13:40 1026 30.3 855 25.25 19.8 67.6 17 -6.2 20.9
13:45 1026 30.3 855 25.25 19.6 67.2 17 -5.8 21.5
13:50 1026 30.3 855 25.25 20.1 68.2 17 -5.5 22.2
13:55 1026 30.3 855 25.25 20.1 68.2 16 -6.4 20.6
14:00 1026 30.3 855 25.25 20.1 68.3 18 -5.1 22.7
14:05 1026 30.3 855 25.25 20.5 69 16 -6 21.2
14:10 1026 30.3 855 25.25 21.2 70.2 15 -6.4 20.5
14:15 1026 30.3 855 25.25 21.2 70.2 15 -6.7 19.9
14:20 1026 30.3 855 25.25 19.9 67.9 15 -7.3 18.9
14:25 1026 30.3 855 25.25 19.9 67.8 15 -7.5 18.4
14:30 1026 30.3 855 25.25 20.5 68.8 15 -7.1 19.1
14:35 1026 30.3 855 25.25 20.2 68.3 16 -6.7 20
14:40 1026 30.3 855 25.25 20.6 69 15 -6.5 20.4
14:45 1025 30.27 855 25.25 21.6 70.9 15 -5.9 21.4
14:50 1025 30.27 855 25.25 22 71.6 15 -5.5 22.2
14:55 1025 30.27 855 25.25 22.2 72 15 -5.7 21.7
15:00 1025 30.27 854 25.22 23 73.4 15 -4.7 23.5
15:05 1025 30.27 854 25.22 22.7 72.8 16 -4.4 24
15:10 1025 30.27 854 25.22 22.5 72.4 15 -4.9 23.2
15:15 1025 30.27 854 25.22 22.8 73 15 -5.3 22.5
15:20 1025 30.27 854 25.22 22.7 72.9 15 -5.4 22.3
15:25 1025 30.27 854 25.22 22.3 72.2 15 -5.1 22.7
15:30 1025 30.27 854 25.22 22.7 72.9 19 -1.9 28.5
15:35 1025 30.27 854 25.22 22.3 72.1 16 -4.8 23.3
15:40 1025 30.27 854 25.22 22.9 73.2 16 -4.4 24.1
15:45 1025 30.27 854 25.22 23.4 74.2 16 -3.8 25.2
15:50 1025 30.27 854 25.22 23.1 73.6 18 -2.5 27.4
15:55 1025 30.27 854 25.22 23.3 74 16 -4 24.7
16:00 1025 30.27 854 25.22 23.1 73.7 16 -4.2 24.4
16:05 1025 30.27 854 25.22 23.5 74.2 17 -3.1 26.4
16:10 1025 30.27 854 25.22 22.8 73 19 -2.1 28.3
16:15 1025 30.27 854 25.22 23 73.3 16 -4 24.7
16:20 1025 30.27 854 25.22 23.7 74.6 15 -4.1 24.6
16:25 1025 30.27 854 25.22 23.5 74.2 16 -3.8 25.1
16:30 1025 30.27 854 25.22 23.6 74.4 16 -3.6 25.6
16:35 1025 30.27 854 25.22 23.6 74.5 17 -2.9 26.8
16:40 1025 30.27 854 25.22 23.4 74.2 16 -3.5 25.6
16:45 1025 30.27 854 25.22 23.8 74.8 16 -3.1 26.3
16:50 1024 30.24 854 25.22 23.1 73.5 18 -2.6 27.4
16:55 1024 30.24 854 25.22 22.8 73 18 -3 26.6
17:00 1024 30.24 854 25.22 23.4 74.2 17 -3 26.6
17:05 1024 30.24 854 25.22 23 73.4 18 -2.3 27.8
17:10 1024 30.24 854 25.22 22.8 73 19 -2 28.4
17:15 1024 30.24 854 25.22 23.8 74.9 17 -2.1 28.2
17:20 1024 30.24 854 25.22 23 73.4 18 -2.2 28
17:25 1024 30.24 853 25.19 23.5 74.3 19 -1.4 29.5
17:30 1024 30.24 853 25.19 24.3 75.8 17 -2.3 27.9
17:35 1024 30.24 853 25.19 24.1 75.4 18 -1.4 29.5
17:40 1024 30.24 853 25.19 23.4 74.1 19 -1 30.1
17:45 1024 30.24 853 25.19 23.5 74.4 19 -1.5 29.3
17:50 1024 30.24 853 25.19 24.1 75.3 19 -0.8 30.6
17:55 1024 30.24 853 25.19 23.3 74 20 -0.5 31
18:00 1024 30.24 853 25.19 23.2 73.7 21 -0.4 31.3
18:05 1024 30.24 853 25.19 22.9 73.3 21 -0.5 31
18:10 1024 30.24 853 25.19 22.6 72.6 22 -0 32
18:15 1024 30.24 853 25.19 22.7 72.8 23 0.5 32.8
18:20 1024 30.24 853 25.19 22.5 72.4 21 -0.7 30.8
18:25 1024 30.24 853 25.19 22.1 71.8 22 -0.5 31.1
18:30 1024 30.24 853 25.19 21.9 71.4 22 -0.5 31.2
18:35 1024 30.24 853 25.19 21.9 71.4 23 -0.2 31.6
18:40 1024 30.24 853 25.19 21.7 71.1 23 -0.2 31.6
18:45 1024 30.24 853 25.19 21.6 70.8 23 -0.2 31.6
18:50 1024 30.24 853 25.19 21.4 70.5 23 -0.3 31.4
18:55 1024 30.24 853 25.19 21.2 70.2 23 -0.4 31.3
19:00 1024 30.24 853 25.19 21 69.8 24 -0.3 31.5
19:05 1024 30.24 853 25.19 21 69.7 24 -0 31.9
19:10 1024 30.24 853 25.19 20.9 69.7 25 0.5 32.8
19:15 1024 30.24 853 25.19 20.9 69.6 25 0.1 32.1
19:20 1024 30.24 853 25.19 20.8 69.4 25 0.1 32.1
19:25 1024 30.24 853 25.19 20.8 69.4 26 0.6 33.2
19:30 1024 30.24 853 25.19 20.7 69.2 26 0.9 33.6
19:35 1024 30.24 853 25.19 20.4 68.7 26 0.3 32.6
19:40 1024 30.24 853 25.19 20.3 68.5 27 1 33.7
19:45 1024 30.24 853 25.19 20.2 68.3 26 0.2 32.3
19:50 1024 30.24 853 25.19 20 68 26 0.3 32.5
19:55 1024 30.24 853 25.19 19.9 67.9 26 -0 31.9
20:00 1024 30.24 853 25.19 19.8 67.7 26 0.1 32.1
20:05 1024 30.24 853 25.19 19.7 67.5 26 -0.2 31.7
20:10 1024 30.24 853 25.19 19.7 67.4 26 -0.2 31.6
20:15 1024 30.24 853 25.19 19.5 67.2 26 -0.4 31.3
20:20 1024 30.24 853 25.19 19.4 67 26 -0.5 31.1
20:25 1024 30.24 853 25.19 19.4 66.8 26 -0.5 31.1
20:30 1024 30.24 853 25.19 19.2 66.6 27 -0.3 31.5
20:35 1024 30.24 853 25.19 19 66.3 27 -0.3 31.5
20:40 1024 30.24 853 25.19 18.9 66.1 27 -0.4 31.3
20:45 1024 30.24 853 25.19 18.8 65.8 28 -0.2 31.6
20:50 1024 30.24 853 25.19 18.5 65.3 29 0 32.1
20:55 1024 30.24 853 25.19 18.3 65 29 0.1 32.2
21:00 1024 30.24 853 25.19 18.1 64.6 29 -0.1 31.7
21:05 1024 30.24 853 25.19 18 64.3 30 0.1 32.3
21:10 1024 30.24 853 25.19 17.7 63.9 30 -0.1 31.9
21:15 1024 30.24 853 25.19 17.6 63.6 30 -0 32
21:20 1024 30.24 853 25.19 17.4 63.3 31 -0 32
21:25 1024 30.24 853 25.19 17.2 63 30 -0.2 31.6
21:30 1024 30.24 853 25.19 17.2 62.9 30 -0.3 31.4
21:35 1024 30.24 853 25.19 17.1 62.7 31 -0.2 31.6
21:40 1024 30.24 853 25.19 16.8 62.3 31 -0.5 31.1
21:45 1024 30.24 853 25.19 16.7 62.1 31 -0.6 31
21:50 1024 30.24 853 25.19 16.6 61.9 31 -0.7 30.7
21:55 1024 30.24 853 25.19 16.6 61.9 30 -0.9 30.5
22:00 1024 30.24 853 25.19 16.5 61.7 30 -0.9 30.4
22:05 1024 30.24 853 25.19 16.4 61.5 30 -0.9 30.3
22:10 1024 30.24 853 25.19 16.3 61.4 30 -1.1 30
22:15 1024 30.24 853 25.19 16.3 61.4 30 -1.3 29.7
22:20 1024 30.24 853 25.19 16.3 61.4 30 -1.3 29.7
22:25 1024 30.24 854 25.22 16.2 61.2 30 -1.3 29.6
22:30 1024 30.24 853 25.19 16.1 61.1 30 -1.4 29.5
22:35 1024 30.24 853 25.19 16.1 60.9 30 -1.5 29.4
22:40 1024 30.24 854 25.22 16 60.8 30 -1.7 29
22:45 1024 30.24 853 25.19 16 60.9 29 -1.7 29
22:50 1024 30.24 854 25.22 16 60.8 30 -1.6 29.1
22:55 1024 30.24 853 25.19 15.9 60.7 29 -1.9 28.7
23:00 1024 30.24 854 25.22 15.9 60.7 30 -1.7 28.9
23:05 1024 30.24 854 25.22 15.8 60.5 30 -1.7 28.9
23:10 1024 30.24 854 25.22 15.8 60.4 30 -1.8 28.8
23:15 1024 30.24 854 25.22 15.7 60.2 30 -1.6 29.1
23:20 1024 30.24 854 25.22 15.6 60.1 30 -1.6 29.1
23:25 1024 30.24 854 25.22 15.5 59.9 31 -1.4 29.4
23:30 1024 30.24 854 25.22 15.4 59.7 31 -1.5 29.3
23:35 1024 30.24 853 25.19 15.3 59.6 31 -1.4 29.4
23:40 1024 30.24 854 25.22 15.3 59.5 31 -1.5 29.4
23:45 1024 30.24 853 25.19 15.3 59.5 31 -1.6 29.2
23:50 1024 30.24 853 25.19 15.2 59.4 32 -1.4 29.5
23:55 1024 30.24 853 25.19 15.1 59.2 32 -1.4 29.4
24:00 1024 30.24 853 25.19 15 59.1 32 -1.4 29.5